Time,TemperatureF,DewpointF,PressureIn,WindDirection,WindDirectionDegrees,WindSpeedMPH,WindSpeedGustMPH,Humidity,HourlyPrecipIn,Conditions,Clouds,dailyrainin,SoftwareType,DateUTC
2015-07-03 00:00:00,72.4,72.1,30.10,NW,311,0.0,0.0,99,0.00,,,0.03,Wunderground v.1.15,2015-07-03 04:00:00,
2015-07-03 00:05:00,72.4,72.1,30.10,NW,311,0.0,0.0,99,0.00,,,0.00,Wunderground v.1.15,2015-07-03 04:05:00,
2015-07-03 00:10:00,72.4,72.1,30.10,NW,311,0.0,0.0,99,0.00,,,0.00,Wunderground v.1.15,2015-07-03 04:10:00,
2015-07-03 00:15:00,72.4,72.1,30.10,NW,311,0.0,0.0,99,0.00,,,0.00,Wunderground v.1.15,2015-07-03 04:15:00,
2015-07-03 00:20:00,72.4,72.1,30.10,NW,311,0.0,0.0,99,0.00,,,0.00,Wunderground v.1.15,2015-07-03 04:20:00,
2015-07-03 00:25:00,72.4,72.1,30.10,NW,311,0.0,0.0,99,0.00,,,0.00,Wunderground v.1.15,2015-07-03 04:25:00,
2015-07-03 00:30:00,72.3,72.0,30.10,NW,311,0.0,0.0,99,0.00,,,0.00,Wunderground v.1.15,2015-07-03 04:30:00,
2015-07-03 00:35:00,72.4,72.1,30.10,NW,311,0.0,0.0,99,0.00,,,0.00,Wunderground v.1.15,2015-07-03 04:35:00,
2015-07-03 00:40:00,72.4,72.1,30.10,NW,311,0.0,0.0,99,0.00,,,0.00,Wunderground v.1.15,2015-07-03 04:40:00,
2015-07-03 00:46:00,72.3,72.0,30.10,NW,311,0.0,0.0,99,0.00,,,0.00,Wunderground v.1.15,2015-07-03 04:46:00,
2015-07-03 00:51:00,72.3,72.0,30.10,NW,311,0.0,0.0,99,0.00,,,0.00,Wunderground v.1.15,2015-07-03 04:51:00,
2015-07-03 00:56:00,72.2,71.9,30.10,NW,311,0.0,0.0,99,0.00,,,0.00,Wunderground v.1.15,2015-07-03 04:56:00,
2015-07-03 01:01:00,72.1,71.8,30.10,NW,311,0.0,0.0,99,0.00,,,0.00,Wunderground v.1.15,2015-07-03 05:01:00,
2015-07-03 01:06:00,72.0,71.7,30.10,West,268,0.0,0.0,99,0.00,,,0.00,Wunderground v.1.15,2015-07-03 05:06:00,
2015-07-03 01:11:00,72.0,71.7,30.10,West,268,0.0,0.0,99,0.00,,,0.00,Wunderground v.1.15,2015-07-03 05:11:00,
2015-07-03 01:16:00,72.1,71.8,30.10,West,268,0.0,0.0,99,0.00,,,0.00,Wunderground v.1.15,2015-07-03 05:16:00,
2015-07-03 01:22:00,72.1,71.8,30.10,West,268,0.0,0.0,99,0.00,,,0.00,Wunderground v.1.15,2015-07-03 05:22:00,
2015-07-03 01:27:00,72.1,71.8,30.10,West,268,0.0,0.0,99,0.00,,,0.00,Wunderground v.1.15,2015-07-03 05:27:00,
2015-07-03 01:32:00,72.1,71.8,30.09,West,268,0.0,0.0,99,0.00,,,0.00,Wunderground v.1.15,2015-07-03 05:32:00,
2015-07-03 01:37:00,72.0,71.7,30.10,West,268,0.0,0.0,99,0.00,,,0.00,Wunderground v.1.15,2015-07-03 05:37:00,
2015-07-03 01:42:00,72.0,71.7,30.09,West,268,0.0,0.0,99,0.00,,,0.00,Wunderground v.1.15,2015-07-03 05:42:00,
2015-07-03 01:48:00,72.0,71.7,30.09,West,268,0.0,0.0,99,0.00,,,0.00,Wunderground v.1.15,2015-07-03 05:48:00,
2015-07-03 01:53:00,72.0,71.7,30.09,West,273,0.0,0.0,99,0.00,,,0.00,Wunderground v.1.15,2015-07-03 05:53:00,
2015-07-03 01:58:00,72.0,71.7,30.09,West,273,0.0,0.0,99,0.00,,,0.00,Wunderground v.1.15,2015-07-03 05:58:00,
2015-07-03 02:03:00,72.2,71.9,30.09,West,273,0.0,0.0,99,0.00,,,0.00,Wunderground v.1.15,2015-07-03 06:03:00,
2015-07-03 02:08:00,72.3,72.0,30.09,West,273,0.0,0.0,99,0.00,,,0.00,Wunderground v.1.15,2015-07-03 06:08:00,
2015-07-03 02:13:00,72.4,72.1,30.09,West,273,0.0,0.0,99,0.00,,,0.00,Wunderground v.1.15,2015-07-03 06:13:00,
2015-07-03 02:18:00,72.4,72.1,30.09,West,273,0.0,0.0,99,0.00,,,0.00,Wunderground v.1.15,2015-07-03 06:18:00,
2015-07-03 02:23:00,72.4,72.1,30.09,West,273,0.0,0.0,99,0.00,,,0.00,Wunderground v.1.15,2015-07-03 06:23:00,
2015-07-03 02:28:00,72.4,72.1,30.09,West,273,0.0,0.0,99,0.00,,,0.00,Wunderground v.1.15,2015-07-03 06:28:00,
2015-07-03 02:33:00,72.4,72.1,30.09,West,273,0.0,0.0,99,0.00,,,0.00,Wunderground v.1.15,2015-07-03 06:33:00,
2015-07-03 02:38:00,72.5,72.2,30.09,West,273,0.0,0.0,99,0.00,,,0.00,Wunderground v.1.15,2015-07-03 06:38:00,
2015-07-03 02:43:00,72.5,72.2,30.09,West,273,0.0,0.0,99,0.00,,,0.00,Wunderground v.1.15,2015-07-03 06:43:00,
2015-07-03 02:48:00,72.5,72.2,30.09,West,273,0.0,0.0,99,0.00,,,0.00,Wunderground v.1.15,2015-07-03 06:48:00,
2015-07-03 02:53:00,72.6,72.3,30.09,West,273,0.0,0.0,99,0.00,,,0.00,Wunderground v.1.15,2015-07-03 06:53:00,
2015-07-03 02:58:00,72.6,72.3,30.08,West,273,0.0,0.0,99,0.00,,,0.00,Wunderground v.1.15,2015-07-03 06:58:00,
2015-07-03 03:03:00,72.6,72.3,30.09,West,273,0.0,0.0,99,0.00,,,0.00,Wunderground v.1.15,2015-07-03 07:03:00,
2015-07-03 03:08:00,72.6,72.3,30.08,West,273,0.0,0.0,99,0.00,,,0.00,Wunderground v.1.15,2015-07-03 07:08:00,
2015-07-03 03:13:00,72.6,72.3,30.08,West,273,0.0,1.0,99,0.00,,,0.00,Wunderground v.1.15,2015-07-03 07:13:00,
2015-07-03 03:18:00,72.6,72.3,30.08,West,273,0.0,1.0,99,0.00,,,0.00,Wunderground v.1.15,2015-07-03 07:18:00,
2015-07-03 03:23:00,72.5,72.2,30.08,West,273,0.0,0.0,99,0.00,,,0.00,Wunderground v.1.15,2015-07-03 07:23:00,
2015-07-03 03:28:00,72.4,72.1,30.08,West,273,0.0,0.0,99,0.00,,,0.00,Wunderground v.1.15,2015-07-03 07:28:00,
2015-07-03 03:33:00,72.4,72.1,30.08,West,273,0.0,0.0,99,0.00,,,0.00,Wunderground v.1.15,2015-07-03 07:33:00,
2015-07-03 03:38:00,72.4,72.1,30.08,West,273,0.0,0.0,99,0.00,,,0.00,Wunderground v.1.15,2015-07-03 07:38:00,
2015-07-03 03:43:00,72.3,72.0,30.08,West,273,0.0,0.0,99,0.00,,,0.00,Wunderground v.1.15,2015-07-03 07:43:00,
2015-07-03 03:48:00,72.3,72.0,30.08,West,273,0.0,0.0,99,0.00,,,0.00,Wunderground v.1.15,2015-07-03 07:48:00,
2015-07-03 03:53:00,72.3,72.0,30.08,West,273,0.0,0.0,99,0.00,,,0.00,Wunderground v.1.15,2015-07-03 07:53:00,
2015-07-03 03:58:00,72.4,72.1,30.08,West,273,0.0,0.0,99,0.00,,,0.00,Wunderground v.1.15,2015-07-03 07:58:00,
2015-07-03 04:03:00,72.6,72.3,30.08,West,273,0.0,0.0,99,0.00,,,0.00,Wunderground v.1.15,2015-07-03 08:03:00,
2015-07-03 04:08:00,72.6,72.3,30.08,West,273,0.0,0.0,99,0.00,,,0.00,Wunderground v.1.15,2015-07-03 08:08:00,
2015-07-03 04:13:00,72.6,72.3,30.08,West,273,0.0,0.0,99,0.00,,,0.00,Wunderground v.1.15,2015-07-03 08:13:00,
2015-07-03 04:18:00,72.6,72.3,30.08,West,273,0.0,0.0,99,0.00,,,0.00,Wunderground v.1.15,2015-07-03 08:18:00,
2015-07-03 04:23:00,72.7,72.4,30.07,West,273,0.0,0.0,99,0.00,,,0.00,Wunderground v.1.15,2015-07-03 08:23:00,
2015-07-03 04:28:00,72.8,72.8,30.07,West,273,0.0,0.0,100,0.00,,,0.00,Wunderground v.1.15,2015-07-03 08:28:00,
2015-07-03 04:33:00,72.8,72.8,30.07,West,273,0.0,0.0,100,0.00,,,0.00,Wunderground v.1.15,2015-07-03 08:33:00,
2015-07-03 04:38:00,72.8,72.5,30.07,West,273,0.0,0.0,99,0.00,,,0.00,Wunderground v.1.15,2015-07-03 08:38:00,
2015-07-03 04:43:00,72.7,72.4,30.07,West,273,0.0,0.0,99,0.00,,,0.00,Wunderground v.1.15,2015-07-03 08:43:00,
2015-07-03 04:48:00,72.6,72.3,30.08,West,273,0.0,0.0,99,0.00,,,0.00,Wunderground v.1.15,2015-07-03 08:48:00,
2015-07-03 04:53:00,72.6,72.3,30.07,West,273,0.0,0.0,99,0.00,,,0.00,Wunderground v.1.15,2015-07-03 08:53:00,
2015-07-03 04:58:00,72.6,72.3,30.07,West,273,0.0,0.0,99,0.00,,,0.00,Wunderground v.1.15,2015-07-03 08:58:00,
2015-07-03 05:03:00,72.6,72.3,30.08,West,273,0.0,0.0,99,0.00,,,0.00,Wunderground v.1.15,2015-07-03 09:03:00,
2015-07-03 05:08:00,72.5,72.2,30.07,West,273,0.0,0.0,99,0.00,,,0.00,Wunderground v.1.15,2015-07-03 09:08:00,
2015-07-03 05:13:00,72.4,72.1,30.07,West,273,0.0,0.0,99,0.00,,,0.00,Wunderground v.1.15,2015-07-03 09:13:00,
2015-07-03 05:18:00,72.4,72.1,30.07,West,273,0.0,0.0,99,0.00,,,0.00,Wunderground v.1.15,2015-07-03 09:18:00,
2015-07-03 05:23:00,72.3,72.0,30.08,West,273,0.0,0.0,99,0.00,,,0.00,Wunderground v.1.15,2015-07-03 09:23:00,
2015-07-03 05:28:00,72.3,72.0,30.08,West,273,0.0,0.0,99,0.00,,,0.00,Wunderground v.1.15,2015-07-03 09:28:00,
2015-07-03 05:33:00,72.2,71.9,30.08,West,273,0.0,0.0,99,0.00,,,0.00,Wunderground v.1.15,2015-07-03 09:33:00,
2015-07-03 05:38:00,72.1,71.8,30.08,West,273,0.0,0.0,99,0.00,,,0.00,Wunderground v.1.15,2015-07-03 09:38:00,
2015-07-03 05:43:00,72.1,71.8,30.08,West,273,0.0,0.0,99,0.00,,,0.00,Wunderground v.1.15,2015-07-03 09:43:00,
2015-07-03 05:48:00,72.1,71.8,30.08,West,273,0.0,0.0,99,0.00,,,0.00,Wunderground v.1.15,2015-07-03 09:48:00,
2015-07-03 05:53:00,72.1,71.8,30.08,West,273,0.0,0.0,99,0.00,,,0.00,Wunderground v.1.15,2015-07-03 09:53:00,
2015-07-03 05:58:00,72.1,71.8,30.08,West,273,0.0,0.0,99,0.00,,,0.00,Wunderground v.1.15,2015-07-03 09:58:00,
2015-07-03 06:03:00,72.0,71.7,30.08,West,273,0.0,0.0,99,0.00,,,0.00,Wunderground v.1.15,2015-07-03 10:03:00,
2015-07-03 06:08:00,72.0,71.7,30.09,West,273,0.0,0.0,99,0.00,,,0.00,Wunderground v.1.15,2015-07-03 10:08:00,
2015-07-03 06:13:00,71.9,71.6,30.08,NNW,337,0.0,0.0,99,0.00,,,0.00,Wunderground v.1.15,2015-07-03 10:13:00,
2015-07-03 06:18:00,71.8,71.5,30.08,NNW,337,0.0,0.0,99,0.00,,,0.00,Wunderground v.1.15,2015-07-03 10:18:00,
2015-07-03 06:23:00,71.9,71.6,30.09,NNW,337,0.0,0.0,99,0.00,,,0.00,Wunderground v.1.15,2015-07-03 10:23:00,
2015-07-03 06:28:00,72.1,72.1,30.09,NNW,337,0.0,0.0,100,0.00,,,0.00,Wunderground v.1.15,2015-07-03 10:28:00,
2015-07-03 06:33:00,72.2,72.2,30.09,NNW,337,0.0,0.0,100,0.00,,,0.00,Wunderground v.1.15,2015-07-03 10:33:00,
2015-07-03 06:38:00,72.2,72.2,30.09,NNW,337,0.0,0.0,100,0.00,,,0.00,Wunderground v.1.15,2015-07-03 10:38:00,
2015-07-03 06:43:00,72.2,72.2,30.09,NNW,337,0.0,0.0,100,0.00,,,0.00,Wunderground v.1.15,2015-07-03 10:43:00,
2015-07-03 06:48:00,72.1,71.8,30.09,NNW,337,0.0,0.0,99,0.00,,,0.00,Wunderground v.1.15,2015-07-03 10:48:00,
2015-07-03 06:53:00,72.0,71.7,30.09,NNW,337,0.0,0.0,99,0.00,,,0.00,Wunderground v.1.15,2015-07-03 10:53:00,
2015-07-03 06:58:00,72.0,71.7,30.09,NNW,337,0.0,0.0,99,0.00,,,0.00,Wunderground v.1.15,2015-07-03 10:58:00,
2015-07-03 07:03:00,72.0,71.7,30.09,NNW,337,0.0,0.0,99,0.00,,,0.00,Wunderground v.1.15,2015-07-03 11:03:00,
2015-07-03 07:08:00,72.0,72.0,30.09,NNW,337,0.0,0.0,100,0.00,,,0.00,Wunderground v.1.15,2015-07-03 11:08:00,
2015-07-03 07:13:00,72.1,72.1,30.10,NNW,337,0.0,0.0,100,0.00,,,0.00,Wunderground v.1.15,2015-07-03 11:13:00,
2015-07-03 07:18:00,72.1,72.1,30.10,NNW,337,0.0,0.0,100,0.00,,,0.00,Wunderground v.1.15,2015-07-03 11:18:00,
2015-07-03 07:23:00,72.2,72.2,30.10,NNW,337,0.0,0.0,100,0.00,,,0.00,Wunderground v.1.15,2015-07-03 11:23:00,
2015-07-03 07:28:00,72.4,72.4,30.10,NNW,337,0.0,0.0,100,0.00,,,0.00,Wunderground v.1.15,2015-07-03 11:28:00,
2015-07-03 07:33:00,72.7,72.7,30.10,NNW,337,0.0,0.0,100,0.00,,,0.00,Wunderground v.1.15,2015-07-03 11:33:00,
2015-07-03 07:38:00,72.9,72.9,30.11,NNW,337,0.0,0.0,100,0.00,,,0.00,Wunderground v.1.15,2015-07-03 11:38:00,
2015-07-03 07:43:00,73.2,73.2,30.11,NNW,337,0.0,0.0,100,0.00,,,0.00,Wunderground v.1.15,2015-07-03 11:43:00,
2015-07-03 07:48:00,73.5,73.5,30.11,NNW,337,0.0,0.0,100,0.00,,,0.00,Wunderground v.1.15,2015-07-03 11:48:00,
2015-07-03 07:53:00,73.8,73.8,30.11,NNW,337,0.0,0.0,100,0.00,,,0.00,Wunderground v.1.15,2015-07-03 11:53:00,
2015-07-03 07:58:00,74.0,74.0,30.11,NNW,337,0.0,0.0,100,0.00,,,0.00,Wunderground v.1.15,2015-07-03 11:58:00,
2015-07-03 08:03:00,74.2,74.2,30.11,NNW,337,0.0,0.0,100,0.00,,,0.00,Wunderground v.1.15,2015-07-03 12:03:00,
2015-07-03 08:08:00,74.4,74.4,30.11,NNW,337,0.0,0.0,100,0.00,,,0.00,Wunderground v.1.15,2015-07-03 12:08:00,
2015-07-03 08:13:00,74.6,74.6,30.11,NNW,337,0.0,0.0,100,0.00,,,0.00,Wunderground v.1.15,2015-07-03 12:13:00,
2015-07-03 08:18:00,74.7,74.7,30.11,NNW,337,0.0,0.0,100,0.00,,,0.00,Wunderground v.1.15,2015-07-03 12:18:00,
2015-07-03 08:23:00,74.8,74.8,30.11,NNW,337,0.0,0.0,100,0.00,,,0.00,Wunderground v.1.15,2015-07-03 12:23:00,
2015-07-03 08:28:00,74.9,74.9,30.11,NNW,337,0.0,0.0,100,0.00,,,0.00,Wunderground v.1.15,2015-07-03 12:28:00,
2015-07-03 08:33:00,75.1,75.1,30.12,NNW,337,0.0,0.0,100,0.00,,,0.00,Wunderground v.1.15,2015-07-03 12:33:00,
2015-07-03 08:38:00,75.3,75.3,30.12,NNW,337,0.0,0.0,100,0.00,,,0.00,Wunderground v.1.15,2015-07-03 12:38:00,
2015-07-03 08:43:00,75.6,75.6,30.12,NNW,337,0.0,0.0,100,0.00,,,0.00,Wunderground v.1.15,2015-07-03 12:43:00,
2015-07-03 08:48:00,75.8,75.8,30.12,NNW,337,0.0,0.0,100,0.00,,,0.00,Wunderground v.1.15,2015-07-03 12:48:00,
2015-07-03 08:53:00,76.0,76.0,30.12,NNW,337,0.0,0.0,100,0.00,,,0.00,Wunderground v.1.15,2015-07-03 12:53:00,
2015-07-03 08:58:00,76.0,76.0,30.12,NNW,337,0.0,0.0,100,0.00,,,0.00,Wunderground v.1.15,2015-07-03 12:58:00,
2015-07-03 09:03:00,76.2,76.2,30.12,NNW,337,0.0,0.0,100,0.00,,,0.00,Wunderground v.1.15,2015-07-03 13:03:00,
2015-07-03 09:08:00,76.4,76.4,30.12,NNW,337,0.0,0.0,100,0.00,,,0.00,Wunderground v.1.15,2015-07-03 13:08:00,
2015-07-03 09:13:00,76.6,76.6,30.12,NNW,337,0.0,0.0,100,0.00,,,0.00,Wunderground v.1.15,2015-07-03 13:13:00,
2015-07-03 09:18:00,77.0,77.0,30.12,NNW,337,0.0,0.0,100,0.00,,,0.00,Wunderground v.1.15,2015-07-03 13:18:00,
2015-07-03 09:23:00,77.3,77.3,30.12,NNW,337,0.0,0.0,100,0.00,,,0.00,Wunderground v.1.15,2015-07-03 13:23:00,
2015-07-03 09:28:00,77.5,77.2,30.12,NNW,336,0.0,1.0,99,0.00,,,0.00,Wunderground v.1.15,2015-07-03 13:28:00,
2015-07-03 09:33:00,78.3,77.7,30.12,NNW,335,0.0,1.0,98,0.00,,,0.00,Wunderground v.1.15,2015-07-03 13:33:00,
2015-07-03 09:38:00,78.7,77.8,30.12,NW,314,0.0,2.0,97,0.00,,,0.00,Wunderground v.1.15,2015-07-03 13:38:00,